Waldo, Wisconsin
Current Conditions -  °F | °C
As of 1:53 PM on Saturday 25 Oct 2014 (Local Time) from KSBM Reporting Station
Clear Clear  
Wind Chill: 64°   Ceiling: Unl
Heat Index: 64°   Visibility: 10mi
Dew Point: 32°   Wind: 17mph
Humidity: 30%   Direction: 290°WNW
Pressure: 29.85"   Gusts: 29mph
Location:  43.67°N, 87.95°W
Report Text: KSBM 251853Z AUTO 29015G25KT 10SM CLR 18/00 A2985 RMK AO2 PK WND 27027/1818 SLP109 T01780000
Loading
Personal Weather Stations






























Interactive Weather Map
Tropical Storm Tracking
New forecast layout! Learn more

10-Day Weather Forecast

Advertisements
Track Severe Weather on mobile